Brooklyn — WDA8190 — position and weather

sailwx.info

Track history (hours):
 
Tides and Currents Weather Stations Pressure Air Temp Water Temp Dewpoint Dewpoint Depression Visibility Wind Speed Wind Dir Waves Ship Positions

Brooklyn

Owner: PORT IMPERIAL FERRY CORP, WEEHAWKEN, NJ. More information available from US FCC via Universal Licensing System.

Last reported at 2018-Jun-23 11:24 UTC. Time now 2018-Jun-23 11:47 UTC.
Position N 40°42' W 073°60'.

Length 19 m; draft 2 m.

Type: Passenger vessel. MMSI: 366851670.

Date/timePositionNaut miles runAvg speedWind from/ knotsBaromVisibWave heightAir tempDewpointWater temp
2018-Jun-23 11:24N 40°42' W 073°60'4 5.4
2018-Jun-23 10:37N 40°38' W 074°02'317.3
2018-Jun-23 10:28N 40°41' W 074°01'6 0.5
2018-Jun-23 00:02N 40°46' W 074°01'0 0.0
2018-Jun-22 23:59N 40°46' W 074°01'4 7.4
2018-Jun-22 23:24N 40°42' W 074°00'3 8.2
2018-Jun-22 23:00N 40°45' W 074°01'0 0.1
2018-Jun-22 22:16N 40°45' W 074°01'311.0
2018-Jun-22 22:00N 40°42' W 074°00'3 6.1
2018-Jun-22 21:30N 40°45' W 074°01'2 4.2
2018-Jun-22 20:59N 40°43' W 074°02'0 1.0
2018-Jun-22 20:31N 40°43' W 074°01'2 3.5
2018-Jun-22 19:51N 40°45' W 074°01'3 8.2
2018-Jun-22 19:26N 40°42' W 074°01'4 2.0
2018-Jun-22 17:15N 40°46' W 074°01'0 0.0
2018-Jun-22 16:53N 40°46' W 074°01'0 0.0
2018-Jun-22 14:01N 40°46' W 074°01'0 0.0
2018-Jun-22 13:55N 40°46' W 074°01'2 4.1
2018-Jun-22 13:30N 40°45' W 074°01'2 3.2
2018-Jun-22 12:59N 40°46' W 074°00'1 0.8
2018-Jun-22 12:20N 40°46' W 074°01'410.6
2018-Jun-22 11:59N 40°42' W 074°01'1 1.7
2018-Jun-22 11:26N 40°43' W 074°01'3 6.8
2018-Jun-22 10:56N 40°46' W 074°00'0 0.1
2018-Jun-22 10:16N 40°46' W 074°01'0 0.5
2018-Jun-22 09:59N 40°46' W 074°01'0 0.0
2018-Jun-22 09:30N 40°46' W 074°01'0 0.0
2018-Jun-22 09:00N 40°46' W 074°01'0 0.0
2018-Jun-22 08:28N 40°46' W 074°01'0 0.0
2018-Jun-22 03:07N 40°46' W 074°01'1 9.6
2018-Jun-22 03:00N 40°45' W 074°01'0 0.8
2018-Jun-22 02:27N 40°46' W 074°01'1 1.3
2018-Jun-22 02:00N 40°45' W 074°01'1 1.1
2018-Jun-22 01:27N 40°46' W 074°01'1 1.3
2018-Jun-22 01:00N 40°45' W 074°01'1 0.9
2018-Jun-22 00:25N 40°46' W 074°01'0 0.5
2018-Jun-21 23:54N 40°46' W 074°00'4 9.2
2018-Jun-21 23:30N 40°42' W 074°00'3 5.9
2018-Jun-21 23:00N 40°45' W 074°01'0 0.5
2018-Jun-21 22:30N 40°45' W 074°01'3 5.6
2018-Jun-21 22:00N 40°42' W 074°00'4 7.1
2018-Jun-21 21:30N 40°46' W 074°01'4 7.2
2018-Jun-21 21:01N 40°42' W 074°01'1 1.5
2018-Jun-21 20:31N 40°43' W 074°01'4 6.0
2018-Jun-21 19:55N 40°46' W 074°00'410.6
2018-Jun-21 19:31N 40°42' W 074°00'4 0.8
2018-Jun-21 14:02N 40°46' W 074°01'0 0.2
2018-Jun-21 14:00N 40°46' W 074°01'4 8.3
2018-Jun-21 13:30N 40°42' W 074°00'1321.9
2018-Jun-21 12:54N 40°29' W 074°04'2 5.2
2018-Jun-21 12:27N 40°31' W 074°03'1226.8
2018-Jun-21 12:01N 40°43' W 074°02'611.7
2018-Jun-21 11:30N 40°37' W 074°03'4 4.4
2018-Jun-21 10:37N 40°33' W 074°03'429.2
2018-Jun-21 10:29N 40°37' W 074°03'  
2018-Jun-18 21:25N 40°52' W 073°57'6 0.9
2018-Jun-18 14:16N 40°46' W 074°01'0 1.8
2018-Jun-18 14:00N 40°46' W 074°00'0 0.4
2018-Jun-18 13:28N 40°46' W 074°00'0 0.0
2018-Jun-18 12:58N 40°46' W 074°00'0 0.1
2018-Jun-18 12:29N 40°46' W 074°00'0 0.2
2018-Jun-18 12:00N 40°46' W 074°00'0 0.0
2018-Jun-18 11:30N 40°46' W 074°00'0 0.1
2018-Jun-18 10:59N 40°46' W 074°00'1 0.9
2018-Jun-18 10:22N 40°46' W 074°01'0 0.0
2018-Jun-17 20:57N 40°46' W 074°01'0 0.0
2018-Jun-17 16:12N 40°46' W 074°01'317.2
2018-Jun-17 16:01N 40°43' W 074°02'0 0.7
2018-Jun-17 15:29N 40°43' W 074°01'1 1.1
2018-Jun-17 15:00N 40°43' W 074°02'1 1.1
2018-Jun-17 14:30N 40°43' W 074°01'3 0.1
2018-Jun-16 01:47N 40°46' W 074°01'311.6
2018-Jun-16 01:31N 40°43' W 074°01'1 2.2
2018-Jun-16 01:00N 40°44' W 074°02'0 0.1
2018-Jun-16 00:30N 40°44' W 074°02'0 0.1
2018-Jun-16 00:00N 40°44' W 074°02'0 0.0
2018-Jun-15 23:30N 40°44' W 074°02'1 2.4
2018-Jun-15 23:00N 40°43' W 074°01'1 2.5
2018-Jun-15 22:30N 40°44' W 074°02'1 2.5
2018-Jun-15 22:00N 40°43' W 074°01'1 2.4
2018-Jun-15 21:30N 40°44' W 074°02'1 2.1
2018-Jun-15 20:56N 40°43' W 074°01'1 2.9
2018-Jun-15 20:30N 40°44' W 074°02'1 2.4
2018-Jun-15 20:00N 40°43' W 074°01'1 2.5
2018-Jun-15 19:30N 40°44' W 074°02'0 0.1
2018-Jun-15 18:51N 40°44' W 074°02'1 3.2
2018-Jun-15 18:28N 40°43' W 074°01'1 2.6
2018-Jun-15 17:59N 40°44' W 074°02'0 0.0
2018-Jun-15 17:28N 40°44' W 074°02'0 0.0
2018-Jun-15 17:01N 40°44' W 074°02'0 0.0
2018-Jun-15 16:30N 40°44' W 074°02'0 0.0
2018-Jun-15 16:00N 40°44' W 074°02'0 0.0
2018-Jun-15 15:29N 40°44' W 074°02'1 2.3
2018-Jun-15 14:55N 40°43' W 074°01'0 0.0
2018-Jun-15 14:26N 40°43' W 074°01'1 3.0
2018-Jun-15 14:00N 40°44' W 074°02'1 2.4
2018-Jun-15 13:30N 40°43' W 074°01'1 2.4
2018-Jun-15 13:01N 40°44' W 074°02'1 2.5
2018-Jun-15 12:30N 40°43' W 074°01'1 2.5
2018-Jun-15 12:00N 40°44' W 074°02'1 2.5
2018-Jun-15 11:30N 40°43' W 074°01'1 2.5
2018-Jun-15 11:01N 40°44' W 074°02'1 2.4
2018-Jun-15 10:30N 40°43' W 074°01'1 2.4
2018-Jun-15 10:01N 40°44' W 074°02'2 3.4
2018-Jun-15 09:21N 40°46' W 074°01'0 0.0
2018-Jun-15 01:41N 40°46' W 074°01'316.4
2018-Jun-15 01:30N 40°43' W 074°01'1 2.4
2018-Jun-15 01:00N 40°44' W 074°02'0 0.0
2018-Jun-15 00:30N 40°44' W 074°02'0 0.1
2018-Jun-15 00:00N 40°44' W 074°02'0 0.2
2018-Jun-14 23:30N 40°44' W 074°01'1 2.3
2018-Jun-14 23:00N 40°43' W 074°01'1 2.4
2018-Jun-14 22:30N 40°44' W 074°02'1 2.3
2018-Jun-14 22:00N 40°43' W 074°01'1 2.2
2018-Jun-14 21:30N 40°44' W 074°01'1 2.2
2018-Jun-14 21:00N 40°43' W 074°01'1 2.4
2018-Jun-14 20:30N 40°44' W 074°02'1 2.4
2018-Jun-14 20:00N 40°43' W 074°01'1 2.4
2018-Jun-14 19:29N 40°44' W 074°02'1 2.6
2018-Jun-14 19:00N 40°43' W 074°01'0 0.0
2018-Jun-14 18:30N 40°43' W 074°01'1 2.4
2018-Jun-14 18:01N 40°44' W 074°02'0 0.1
2018-Jun-14 17:30N 40°44' W 074°02'0 0.1
2018-Jun-14 17:00N 40°44' W 074°01'0 0.2
2018-Jun-14 16:31N 40°44' W 074°02'0 0.0
2018-Jun-14 16:00N 40°44' W 074°02'0 0.0
2018-Jun-14 15:30N 40°44' W 074°02'0 0.0
2018-Jun-14 15:00N 40°44' W 074°02'0 0.0
2018-Jun-14 14:30N 40°44' W 074°02'0 0.0
2018-Jun-14 14:00N 40°44' W 074°02'1 2.4
2018-Jun-14 13:30N 40°43' W 074°01'1 2.4
2018-Jun-14 13:00N 40°44' W 074°02'1 2.5
2018-Jun-14 12:30N 40°43' W 074°01'1 2.5
2018-Jun-14 12:00N 40°44' W 074°02'1 2.4
2018-Jun-14 11:30N 40°43' W 074°01'1 2.4
2018-Jun-14 11:00N 40°44' W 074°02'1 2.4
2018-Jun-14 10:30N 40°43' W 074°01'1 2.2
2018-Jun-14 09:56N 40°44' W 074°01'2 0.3
2018-Jun-14 01:43N 40°46' W 074°01'315.8
2018-Jun-14 01:31N 40°43' W 074°01'1 2.1
2018-Jun-14 01:00N 40°44' W 074°02'0 0.1
2018-Jun-14 00:30N 40°44' W 074°02'0 0.2
2018-Jun-14 00:00N 40°44' W 074°01'0 0.1
2018-Jun-13 23:30N 40°44' W 074°01'1 2.2
2018-Jun-13 23:01N 40°43' W 074°01'1 2.2
2018-Jun-13 22:30N 40°44' W 074°01'1 2.4
2018-Jun-13 22:00N 40°43' W 074°01'1 2.4
2018-Jun-13 21:30N 40°44' W 074°01'1 2.4
2018-Jun-13 21:00N 40°43' W 074°01'1 2.3
2018-Jun-13 20:31N 40°44' W 074°01'1 2.3
2018-Jun-13 20:00N 40°43' W 074°01'1 2.4
2018-Jun-13 19:30N 40°44' W 074°02'1 2.5
2018-Jun-13 19:00N 40°43' W 074°01'0 0.1
2018-Jun-13 18:31N 40°43' W 074°01'1 2.4
2018-Jun-13 18:00N 40°44' W 074°02'0 0.2
2018-Jun-13 17:31N 40°44' W 074°01'0 0.1
2018-Jun-13 17:01N 40°44' W 074°02'0 0.1
2018-Jun-13 16:30N 40°44' W 074°02'0 0.1
2018-Jun-13 16:00N 40°44' W 074°02'0 0.0
2018-Jun-13 15:30N 40°44' W 074°02'0 0.0
2018-Jun-13 14:59N 40°44' W 074°02'  
Track history (hours):
 
Tides and Currents Weather Stations Pressure Air Temp Water Temp Dewpoint Dewpoint Depression Visibility Wind Speed Wind Dir Waves Ship Positions

Brooklyn

Owner: PORT IMPERIAL FERRY CORP, WEEHAWKEN, NJ. More information available from US FCC via Universal Licensing System.

Last reported at 2018-Jun-23 11:24 UTC. Time now 2018-Jun-23 11:47 UTC.
Position N 40°42' W 073°60'.

Length 19 m; draft 2 m.

Type: Passenger vessel. MMSI: 366851670.

Date/timePositionNaut miles runAvg speedWind from/ knotsBaromVisibWave heightAir tempDewpointWater temp
2018-Jun-23 11:24N 40°42' W 073°60'4 5.4
2018-Jun-23 10:37N 40°38' W 074°02'317.3
2018-Jun-23 10:28N 40°41' W 074°01'6 0.5
2018-Jun-23 00:02N 40°46' W 074°01'0 0.0
2018-Jun-22 23:59N 40°46' W 074°01'4 7.4
2018-Jun-22 23:24N 40°42' W 074°00'3 8.2
2018-Jun-22 23:00N 40°45' W 074°01'0 0.1
2018-Jun-22 22:16N 40°45' W 074°01'311.0
2018-Jun-22 22:00N 40°42' W 074°00'3 6.1
2018-Jun-22 21:30N 40°45' W 074°01'2 4.2
2018-Jun-22 20:59N 40°43' W 074°02'0 1.0
2018-Jun-22 20:31N 40°43' W 074°01'2 3.5
2018-Jun-22 19:51N 40°45' W 074°01'3 8.2
2018-Jun-22 19:26N 40°42' W 074°01'4 2.0
2018-Jun-22 17:15N 40°46' W 074°01'0 0.0
2018-Jun-22 16:53N 40°46' W 074°01'0 0.0
2018-Jun-22 14:01N 40°46' W 074°01'0 0.0
2018-Jun-22 13:55N 40°46' W 074°01'2 4.1
2018-Jun-22 13:30N 40°45' W 074°01'2 3.2
2018-Jun-22 12:59N 40°46' W 074°00'1 0.8
2018-Jun-22 12:20N 40°46' W 074°01'410.6
2018-Jun-22 11:59N 40°42' W 074°01'1 1.7
2018-Jun-22 11:26N 40°43' W 074°01'3 6.8
2018-Jun-22 10:56N 40°46' W 074°00'0 0.1
2018-Jun-22 10:16N 40°46' W 074°01'0 0.5
2018-Jun-22 09:59N 40°46' W 074°01'0 0.0
2018-Jun-22 09:30N 40°46' W 074°01'0 0.0
2018-Jun-22 09:00N 40°46' W 074°01'0 0.0
2018-Jun-22 08:28N 40°46' W 074°01'0 0.0
2018-Jun-22 03:07N 40°46' W 074°01'1 9.6
2018-Jun-22 03:00N 40°45' W 074°01'0 0.8
2018-Jun-22 02:27N 40°46' W 074°01'1 1.3
2018-Jun-22 02:00N 40°45' W 074°01'1 1.1
2018-Jun-22 01:27N 40°46' W 074°01'1 1.3
2018-Jun-22 01:00N 40°45' W 074°01'1 0.9
2018-Jun-22 00:25N 40°46' W 074°01'0 0.5
2018-Jun-21 23:54N 40°46' W 074°00'4 9.2
2018-Jun-21 23:30N 40°42' W 074°00'3 5.9
2018-Jun-21 23:00N 40°45' W 074°01'0 0.5
2018-Jun-21 22:30N 40°45' W 074°01'3 5.6
2018-Jun-21 22:00N 40°42' W 074°00'4 7.1
2018-Jun-21 21:30N 40°46' W 074°01'4 7.2
2018-Jun-21 21:01N 40°42' W 074°01'1 1.5
2018-Jun-21 20:31N 40°43' W 074°01'4 6.0
2018-Jun-21 19:55N 40°46' W 074°00'410.6
2018-Jun-21 19:31N 40°42' W 074°00'4 0.8
2018-Jun-21 14:02N 40°46' W 074°01'0 0.2
2018-Jun-21 14:00N 40°46' W 074°01'4 8.3
2018-Jun-21 13:30N 40°42' W 074°00'1321.9
2018-Jun-21 12:54N 40°29' W 074°04'2 5.2
2018-Jun-21 12:27N 40°31' W 074°03'1226.8
2018-Jun-21 12:01N 40°43' W 074°02'611.7
2018-Jun-21 11:30N 40°37' W 074°03'4 4.4
2018-Jun-21 10:37N 40°33' W 074°03'429.2
2018-Jun-21 10:29N 40°37' W 074°03'  
2018-Jun-18 21:25N 40°52' W 073°57'6 0.9
2018-Jun-18 14:16N 40°46' W 074°01'0 1.8
2018-Jun-18 14:00N 40°46' W 074°00'0 0.4
2018-Jun-18 13:28N 40°46' W 074°00'0 0.0
2018-Jun-18 12:58N 40°46' W 074°00'0 0.1
2018-Jun-18 12:29N 40°46' W 074°00'0 0.2
2018-Jun-18 12:00N 40°46' W 074°00'0 0.0
2018-Jun-18 11:30N 40°46' W 074°00'0 0.1
2018-Jun-18 10:59N 40°46' W 074°00'1 0.9
2018-Jun-18 10:22N 40°46' W 074°01'0 0.0
2018-Jun-17 20:57N 40°46' W 074°01'0 0.0
2018-Jun-17 16:12N 40°46' W 074°01'317.2
2018-Jun-17 16:01N 40°43' W 074°02'0 0.7
2018-Jun-17 15:29N 40°43' W 074°01'1 1.1
2018-Jun-17 15:00N 40°43' W 074°02'1 1.1
2018-Jun-17 14:30N 40°43' W 074°01'3 0.1
2018-Jun-16 01:47N 40°46' W 074°01'311.6
2018-Jun-16 01:31N 40°43' W 074°01'1 2.2
2018-Jun-16 01:00N 40°44' W 074°02'0 0.1
2018-Jun-16 00:30N 40°44' W 074°02'0 0.1
2018-Jun-16 00:00N 40°44' W 074°02'0 0.0
2018-Jun-15 23:30N 40°44' W 074°02'1 2.4
2018-Jun-15 23:00N 40°43' W 074°01'1 2.5
2018-Jun-15 22:30N 40°44' W 074°02'1 2.5
2018-Jun-15 22:00N 40°43' W 074°01'1 2.4
2018-Jun-15 21:30N 40°44' W 074°02'1 2.1
2018-Jun-15 20:56N 40°43' W 074°01'1 2.9
2018-Jun-15 20:30N 40°44' W 074°02'1 2.4
2018-Jun-15 20:00N 40°43' W 074°01'1 2.5
2018-Jun-15 19:30N 40°44' W 074°02'0 0.1
2018-Jun-15 18:51N 40°44' W 074°02'1 3.2
2018-Jun-15 18:28N 40°43' W 074°01'1 2.6
2018-Jun-15 17:59N 40°44' W 074°02'0 0.0
2018-Jun-15 17:28N 40°44' W 074°02'0 0.0
2018-Jun-15 17:01N 40°44' W 074°02'0 0.0
2018-Jun-15 16:30N 40°44' W 074°02'0 0.0
2018-Jun-15 16:00N 40°44' W 074°02'0 0.0
2018-Jun-15 15:29N 40°44' W 074°02'1 2.3
2018-Jun-15 14:55N 40°43' W 074°01'0 0.0
2018-Jun-15 14:26N 40°43' W 074°01'1 3.0
2018-Jun-15 14:00N 40°44' W 074°02'1 2.4
2018-Jun-15 13:30N 40°43' W 074°01'1 2.4
2018-Jun-15 13:01N 40°44' W 074°02'1 2.5
2018-Jun-15 12:30N 40°43' W 074°01'1 2.5
2018-Jun-15 12:00N 40°44' W 074°02'1 2.5
2018-Jun-15 11:30N 40°43' W 074°01'1 2.5
2018-Jun-15 11:01N 40°44' W 074°02'1 2.4
2018-Jun-15 10:30N 40°43' W 074°01'1 2.4
2018-Jun-15 10:01N 40°44' W 074°02'2 3.4
2018-Jun-15 09:21N 40°46' W 074°01'0 0.0
2018-Jun-15 01:41N 40°46' W 074°01'316.4
2018-Jun-15 01:30N 40°43' W 074°01'1 2.4
2018-Jun-15 01:00N 40°44' W 074°02'0 0.0
2018-Jun-15 00:30N 40°44' W 074°02'0 0.1
2018-Jun-15 00:00N 40°44' W 074°02'0 0.2
2018-Jun-14 23:30N 40°44' W 074°01'1 2.3
2018-Jun-14 23:00N 40°43' W 074°01'1 2.4
2018-Jun-14 22:30N 40°44' W 074°02'1 2.3
2018-Jun-14 22:00N 40°43' W 074°01'1 2.2
2018-Jun-14 21:30N 40°44' W 074°01'1 2.2
2018-Jun-14 21:00N 40°43' W 074°01'1 2.4
2018-Jun-14 20:30N 40°44' W 074°02'1 2.4
2018-Jun-14 20:00N 40°43' W 074°01'1 2.4
2018-Jun-14 19:29N 40°44' W 074°02'1 2.6
2018-Jun-14 19:00N 40°43' W 074°01'0 0.0
2018-Jun-14 18:30N 40°43' W 074°01'1 2.4
2018-Jun-14 18:01N 40°44' W 074°02'0 0.1
2018-Jun-14 17:30N 40°44' W 074°02'0 0.1
2018-Jun-14 17:00N 40°44' W 074°01'0 0.2
2018-Jun-14 16:31N 40°44' W 074°02'0 0.0
2018-Jun-14 16:00N 40°44' W 074°02'0 0.0
2018-Jun-14 15:30N 40°44' W 074°02'0 0.0
2018-Jun-14 15:00N 40°44' W 074°02'0 0.0
2018-Jun-14 14:30N 40°44' W 074°02'0 0.0
2018-Jun-14 14:00N 40°44' W 074°02'1 2.4
2018-Jun-14 13:30N 40°43' W 074°01'1 2.4
2018-Jun-14 13:00N 40°44' W 074°02'1 2.5
2018-Jun-14 12:30N 40°43' W 074°01'1 2.5
2018-Jun-14 12:00N 40°44' W 074°02'1 2.4
2018-Jun-14 11:30N 40°43' W 074°01'1 2.4
2018-Jun-14 11:00N 40°44' W 074°02'1 2.4
2018-Jun-14 10:30N 40°43' W 074°01'1 2.2
2018-Jun-14 09:56N 40°44' W 074°01'2 0.3
2018-Jun-14 01:43N 40°46' W 074°01'315.8
2018-Jun-14 01:31N 40°43' W 074°01'1 2.1
2018-Jun-14 01:00N 40°44' W 074°02'0 0.1
2018-Jun-14 00:30N 40°44' W 074°02'0 0.2
2018-Jun-14 00:00N 40°44' W 074°01'0 0.1
2018-Jun-13 23:30N 40°44' W 074°01'1 2.2
2018-Jun-13 23:01N 40°43' W 074°01'1 2.2
2018-Jun-13 22:30N 40°44' W 074°01'1 2.4
2018-Jun-13 22:00N 40°43' W 074°01'1 2.4
2018-Jun-13 21:30N 40°44' W 074°01'1 2.4
2018-Jun-13 21:00N 40°43' W 074°01'1 2.3
2018-Jun-13 20:31N 40°44' W 074°01'1 2.3
2018-Jun-13 20:00N 40°43' W 074°01'1 2.4
2018-Jun-13 19:30N 40°44' W 074°02'1 2.5
2018-Jun-13 19:00N 40°43' W 074°01'0 0.1
2018-Jun-13 18:31N 40°43' W 074°01'1 2.4
2018-Jun-13 18:00N 40°44' W 074°02'0 0.2
2018-Jun-13 17:31N 40°44' W 074°01'0 0.1
2018-Jun-13 17:01N 40°44' W 074°02'0 0.1
2018-Jun-13 16:30N 40°44' W 074°02'0 0.1
2018-Jun-13 16:00N 40°44' W 074°02'0 0.0
2018-Jun-13 15:30N 40°44' W 074°02'0 0.0
2018-Jun-13 14:59N 40°44' W 074°02'  

Dump ship's entire track history